Time;durP1;ratioP1;P1;durP2;ratioP2;P2;SDS_P1;SDS_P2;PMS_P1;PMS_P2;Temp;Humidity;BMP_temperature;BMP_pressure;BME280_temperature;BME280_humidity;BME280_pressure;Samples;Min_cycle;Max_cycle;Signal;HPM_P1;HPM_P2
2022/09/29 00:00:38;;;;;;;3.83;1.85;;;;;;;18.77;46.19;99878.66;5062844;28;20032;-65
2022/09/29 00:03:05;;;;;;;4.53;2.00;;;;;;;18.81;46.11;99884.44;5062890;28;20108;-66
2022/09/29 00:05:30;;;;;;;3.97;2.00;;;;;;;18.71;46.10;99876.63;5062769;28;20063;-64
2022/09/29 00:07:56;;;;;;;4.68;2.15;;;;;;;18.87;46.26;99898.84;5063033;28;20063;-64
2022/09/29 00:10:22;;;;;;;3.17;1.90;;;;;;;18.85;46.17;99896.41;5063272;28;20990;-66
2022/09/29 00:12:48;;;;;;;4.25;1.95;;;;;;;18.81;46.03;99893.19;5062788;28;20045;-66
2022/09/29 00:15:13;;;;;;;4.07;1.80;;;;;;;18.78;46.05;99890.84;5062881;28;20346;-65
2022/09/29 00:17:38;;;;;;;4.20;2.00;;;;;;;18.78;46.17;99890.03;5062752;28;20376;-64
2022/09/29 00:20:05;;;;;;;3.67;1.80;;;;;;;18.79;46.24;99892.50;5062587;28;20040;-67
2022/09/29 00:22:30;;;;;;;4.38;2.05;;;;;;;18.85;45.80;99909.59;5062580;28;20456;-64
2022/09/29 00:24:55;;;;;;;5.20;2.20;;;;;;;18.84;45.87;99897.38;5061815;28;20029;-66
2022/09/29 00:27:20;;;;;;;4.45;2.30;;;;;;;18.76;45.58;99884.91;5062470;28;20124;-64
2022/09/29 00:29:46;;;;;;;5.60;2.03;;;;;;;18.79;45.82;99889.06;5061051;28;20374;-64
2022/09/29 00:32:11;;;;;;;5.07;2.13;;;;;;;18.76;45.51;99876.16;5061315;28;20037;-64
2022/09/29 00:34:37;;;;;;;6.40;2.20;;;;;;;18.75;45.65;99875.31;5061950;28;20250;-64
2022/09/29 00:37:02;;;;;;;4.18;2.03;;;;;;;18.74;45.69;99878.94;5062421;28;20082;-65
2022/09/29 00:39:28;;;;;;;3.05;1.70;;;;;;;18.76;45.45;99881.44;5062067;28;20067;-65
2022/09/29 00:41:53;;;;;;;4.95;2.10;;;;;;;18.79;45.50;99891.69;5062217;28;20098;-66
2022/09/29 00:44:18;;;;;;;3.92;2.15;;;;;;;18.79;45.62;99889.06;5061996;28;20042;-66
2022/09/29 00:47:03;;;;;;;3.50;1.90;;;;;;;18.78;45.36;99890.84;5062685;28;20032;-65
2022/09/29 00:49:35;;;;;;;3.97;2.00;;;;;;;18.78;45.46;99892.66;5062173;28;20040;-67
2022/09/29 00:52:24;;;;;;;4.15;2.00;;;;;;;18.76;45.57;99892.00;5062049;28;20024;-64
2022/09/29 00:54:59;;;;;;;4.65;2.20;;;;;;;18.56;45.80;99868.38;5062033;28;20028;-68
2022/09/29 00:57:30;;;;;;;3.97;1.90;;;;;;;18.66;45.41;99876.25;5061940;28;20056;-68
2022/09/29 01:00:02;;;;;;;3.97;2.13;;;;;;;18.62;45.33;99880.97;5061678;28;20025;-67
2022/09/29 01:02:32;;;;;;;4.80;2.28;;;;;;;18.68;45.34;99883.00;5062189;28;20036;-65
2022/09/29 01:04:59;;;;;;;5.10;2.20;;;;;;;18.66;45.36;99879.69;5061810;28;20036;-66
2022/09/29 01:07:26;;;;;;;4.45;2.10;;;;;;;18.63;45.27;99873.91;5061844;28;20031;-65
2022/09/29 01:09:55;;;;;;;4.03;2.00;;;;;;;18.66;45.30;99877.06;5061600;28;20464;-65
2022/09/29 01:12:21;;;;;;;4.07;2.15;;;;;;;18.68;45.38;99884.84;5061608;28;20128;-65
2022/09/29 01:14:47;;;;;;;6.22;1.92;;;;;;;18.60;45.21;99876.84;5061690;28;20037;-65
2022/09/29 01:17:12;;;;;;;4.20;2.20;;;;;;;18.58;45.28;99874.34;5062044;28;20032;-66
2022/09/29 01:19:56;;;;;;;4.70;2.63;;;;;;;18.62;45.31;99874.88;5061676;28;20043;-65
2022/09/29 01:23:00;;;;;;;4.38;2.08;;;;;;;18.62;45.44;99880.97;5061784;28;20048;-66
2022/09/29 01:25:38;;;;;;;3.78;2.00;;;;;;;18.62;44.97;99888.88;5045149;28;20047;-65
2022/09/29 01:28:21;;;;;;;4.05;2.20;;;;;;;18.59;45.13;99878.63;5061801;28;20481;-66
2022/09/29 01:31:10;;;;;;;3.47;2.00;;;;;;;18.58;45.08;99884.91;5061672;28;20028;-67
2022/09/29 01:33:55;;;;;;;3.97;2.40;;;;;;;18.56;45.18;99886.84;5060861;28;20289;-64
2022/09/29 01:36:54;;;;;;;3.97;2.47;;;;;;;18.55;45.13;99877.28;5060634;28;20040;-67
2022/09/29 01:39:35;;;;;;;3.63;2.08;;;;;;;18.57;44.90;99893.78;5055295;28;20052;-66
2022/09/29 01:42:10;;;;;;;4.40;2.13;;;;;;;18.58;45.16;99895.47;5068128;28;20086;-64
2022/09/29 01:45:01;;;;;;;4.15;2.50;;;;;;;18.49;45.19;99886.63;5059665;28;20029;-64
2022/09/29 01:47:40;;;;;;;4.57;2.40;;;;;;;18.49;44.92;99880.53;5061517;28;20032;-65
2022/09/29 01:50:17;;;;;;;5.43;2.10;;;;;;;18.43;45.11;99876.66;5061328;28;20036;-67
2022/09/29 01:52:53;;;;;;;4.72;2.50;;;;;;;18.56;44.90;99900.03;5061038;28;20025;-66
2022/09/29 01:55:24;;;;;;;4.03;2.22;;;;;;;18.55;44.81;99906.31;5060897;28;20028;-66
2022/09/29 01:58:06;;;;;;;4.10;2.30;;;;;;;18.47;44.64;99885.97;5061052;28;20058;-66
2022/09/29 02:00:38;;;;;;;5.78;2.38;;;;;;;18.53;44.87;99892.44;5060977;28;20452;-65
2022/09/29 02:03:19;;;;;;;4.88;2.15;;;;;;;18.54;45.01;99893.28;5061503;28;20040;-65
2022/09/29 02:05:52;;;;;;;3.88;2.10;;;;;;;18.50;44.91;99890.13;5061387;28;20094;-65
2022/09/29 02:08:28;;;;;;;4.00;2.17;;;;;;;18.46;44.87;99886.94;5060678;28;20078;-65
2022/09/29 02:11:06;;;;;;;4.20;2.60;;;;;;;18.48;44.81;99890.25;5061277;28;20021;-65
2022/09/29 02:14:05;;;;;;;5.30;2.50;;;;;;;18.51;44.74;99893.56;5061048;28;20040;-63
2022/09/29 02:16:37;;;;;;;3.78;2.22;;;;;;;18.52;44.90;99897.84;5059407;28;20035;-65
2022/09/29 02:19:12;;;;;;;4.25;2.17;;;;;;;18.41;44.69;99880.47;5060649;28;20032;-66
2022/09/29 02:21:37;;;;;;;4.40;2.47;;;;;;;18.43;44.72;99887.22;5060445;28;20403;-67
2022/09/29 02:24:03;;;;;;;4.25;2.30;;;;;;;18.36;44.73;99874.78;5060786;28;20039;-65
2022/09/29 02:26:35;;;;;;;4.78;2.58;;;;;;;18.44;44.52;99890.72;5061387;28;20412;-64
2022/09/29 02:29:02;;;;;;;4.18;2.30;;;;;;;18.38;44.56;99886.03;5060926;28;20073;-64
2022/09/29 02:31:27;;;;;;;4.43;2.30;;;;;;;18.40;44.55;99887.53;5060957;28;20057;-67
2022/09/29 02:33:53;;;;;;;4.88;2.35;;;;;;;18.37;44.74;99885.19;5060489;28;20029;-64
2022/09/29 02:36:27;;;;;;;4.40;2.30;;;;;;;18.43;44.54;99889.03;5059275;28;20040;-66
2022/09/29 02:38:55;;;;;;;;;;;;;;;18.43;44.72;99902.22;5061524;28;20043;-68
2022/09/29 02:41:47;;;;;;;4.40;2.10;;;;;;;18.44;44.64;99898.63;5060708;28;19912;-65
2022/09/29 02:44:15;;;;;;;3.70;2.00;;;;;;;18.43;44.85;99897.78;5060713;28;20824;-66
2022/09/29 02:47:16;;;;;;;5.57;2.85;;;;;;;18.37;44.34;99893.09;5060235;28;20041;-65
2022/09/29 02:49:57;;;;;;;4.90;2.42;;;;;;;18.42;44.59;99898.78;5062903;28;20396;-65
2022/09/29 02:52:55;;;;;;;3.85;2.10;;;;;;;18.42;44.30;99904.06;5064072;28;20025;-65
2022/09/29 02:55:48;;;;;;;3.88;2.10;;;;;;;18.36;44.31;99885.31;5064528;28;20063;-66
2022/09/29 02:58:30;;;;;;;4.38;2.38;;;;;;;18.34;44.31;99887.28;5064306;28;20547;-66
2022/09/29 03:00:58;;;;;;;3.95;2.30;;;;;;;18.24;44.24;99871.53;5063982;28;20090;-63
2022/09/29 03:03:23;;;;;;;4.05;2.45;;;;;;;18.41;44.44;99898.94;5064189;28;20419;-65
2022/09/29 03:05:49;;;;;;;3.65;2.13;;;;;;;18.36;44.47;99896.72;5063624;28;20033;-65
2022/09/29 03:08:15;;;;;;;5.35;2.38;;;;;;;18.32;44.47;99898.00;5064120;28;20039;-65
2022/09/29 03:10:41;;;;;;;4.60;2.53;;;;;;;18.32;44.44;99898.00;5063934;28;20078;-66
2022/09/29 03:13:06;;;;;;;4.57;2.58;;;;;;;18.29;44.44;99891.22;5063719;28;20036;-65
2022/09/29 03:15:31;;;;;;;4.00;2.23;;;;;;;18.31;44.15;99894.53;5063897;28;20082;-67
2022/09/29 03:17:56;;;;;;;4.53;2.47;;;;;;;18.37;44.33;99901.00;5063373;28;20265;-66
2022/09/29 03:20:22;;;;;;;4.43;2.43;;;;;;;18.16;44.18;99861.72;5063994;28;20300;-66
2022/09/29 03:22:48;;;;;;;4.28;2.05;;;;;;;18.31;44.09;99891.06;5063373;28;20724;-66
2022/09/29 03:25:13;;;;;;;4.30;2.23;;;;;;;18.30;44.26;99886.78;5063960;28;20055;-66
2022/09/29 03:27:39;;;;;;;4.15;2.30;;;;;;;18.33;43.80;99894.38;5063408;28;20659;-66
2022/09/29 03:30:05;;;;;;;4.53;2.40;;;;;;;18.36;44.03;99898.50;5063776;28;20051;-68
2022/09/29 03:32:30;;;;;;;5.18;2.55;;;;;;;18.24;44.31;99876.81;5063381;28;20028;-66
2022/09/29 03:34:55;;;;;;;3.95;2.25;;;;;;;18.28;44.00;99892.19;5063673;28;20032;-67
2022/09/29 03:37:21;;;;;;;4.10;2.30;;;;;;;18.29;43.95;99882.47;5063520;28;20388;-66
2022/09/29 03:39:46;;;;;;;4.75;2.25;;;;;;;18.25;43.91;99881.13;5063591;28;20064;-64
2022/09/29 03:42:11;;;;;;;4.15;2.33;;;;;;;18.27;44.11;99889.69;5063642;28;20102;-68
2022/09/29 03:44:36;;;;;;;5.30;2.33;;;;;;;18.25;43.86;99889.84;5063261;28;20047;-66
2022/09/29 03:47:02;;;;;;;4.00;2.17;;;;;;;18.30;44.20;99905.22;5063102;28;20032;-66
2022/09/29 03:49:27;;;;;;;4.07;2.20;;;;;;;18.32;44.13;99898.00;5063046;28;20301;-65
2022/09/29 03:51:52;;;;;;;4.05;2.30;;;;;;;18.24;44.01;99892.63;5063136;28;20067;-65
2022/09/29 03:54:17;;;;;;;5.88;2.20;;;;;;;18.26;43.79;99891.53;5062940;28;20036;-63
2022/09/29 03:56:43;;;;;;;4.95;2.55;;;;;;;18.30;43.91;99897.31;5063486;28;20029;-64
2022/09/29 03:59:10;;;;;;;5.33;2.17;;;;;;;18.25;44.09;99889.03;5062165;28;20054;-65
2022/09/29 04:01:37;;;;;;;4.70;2.30;;;;;;;18.04;43.96;99860.25;5063016;28;20261;-65
2022/09/29 04:04:03;;;;;;;4.15;2.17;;;;;;;18.22;43.95;99898.06;5062879;28;20063;-64
2022/09/29 04:06:28;;;;;;;5.15;2.30;;;;;;;18.27;43.71;99905.53;5063054;28;20032;-66
2022/09/29 04:08:53;;;;;;;4.78;2.45;;;;;;;18.20;43.83;99899.16;5062792;28;20415;-66
2022/09/29 04:11:19;;;;;;;4.63;2.50;;;;;;;18.20;43.70;99900.03;5063199;28;20430;-66
2022/09/29 04:13:44;;;;;;;4.75;2.30;;;;;;;18.25;43.53;99910.94;5062802;28;20028;-65
2022/09/29 04:16:09;;;;;;;4.43;2.08;;;;;;;18.24;43.92;99905.81;5061596;28;20119;-68
2022/09/29 04:18:35;;;;;;;4.38;2.60;;;;;;;18.25;43.77;99918.84;5062208;28;20036;-66
2022/09/29 04:21:05;;;;;;;4.18;2.30;;;;;;;18.18;43.78;99907.22;5062904;28;20032;-65
2022/09/29 04:23:31;;;;;;;4.45;2.40;;;;;;;18.21;44.00;99909.56;5062676;28;20052;-67
2022/09/29 04:25:57;;;;;;;4.43;2.50;;;;;;;18.11;43.57;99904.34;5062566;28;20246;-65
2022/09/29 04:28:23;;;;;;;5.45;2.20;;;;;;;18.17;43.59;99915.31;5062635;28;20257;-64
2022/09/29 04:30:49;;;;;;;6.03;2.35;;;;;;;18.16;43.59;99913.66;5062429;28;20045;-67
2022/09/29 04:33:14;;;;;;;4.30;2.40;;;;;;;18.22;43.66;99927.06;5061882;28;20029;-67
2022/09/29 04:35:40;;;;;;;4.53;2.47;;;;;;;18.14;43.56;99913.78;5062275;28;20024;-67
2022/09/29 04:38:07;;;;;;;4.35;2.15;;;;;;;18.16;43.71;99916.28;5062524;28;20029;-68
2022/09/29 04:40:33;;;;;;;6.72;2.50;;;;;;;18.21;43.59;99927.22;5062395;28;20043;-66
2022/09/29 04:42:58;;;;;;;4.60;2.40;;;;;;;18.13;43.75;99917.41;5061952;28;20036;-65
2022/09/29 04:45:23;;;;;;;5.05;2.33;;;;;;;18.12;43.54;99924.47;5062149;28;20031;-66
2022/09/29 04:47:48;;;;;;;4.40;2.40;;;;;;;18.15;43.59;99925.16;5061781;28;20055;-66
2022/09/29 04:50:14;;;;;;;4.90;2.20;;;;;;;18.13;43.44;99922.66;5062102;28;20032;-65
2022/09/29 04:52:42;;;;;;;5.20;2.70;;;;;;;18.18;43.60;99936.25;5062282;28;20388;-66
2022/09/29 04:55:10;;;;;;;3.63;2.08;;;;;;;18.10;43.54;99923.81;5061698;28;20138;-67
2022/09/29 04:57:36;;;;;;;4.15;2.42;;;;;;;18.10;43.63;99925.59;5061661;28;20067;-67
2022/09/29 05:00:02;;;;;;;4.65;2.30;;;;;;;18.16;43.61;99935.56;5061926;28;20067;-65
2022/09/29 05:02:27;;;;;;;4.18;2.30;;;;;;;18.17;43.47;99934.59;5061468;28;20119;-67
2022/09/29 05:04:52;;;;;;;5.25;2.50;;;;;;;18.16;43.56;99938.19;5061852;28;20590;-65
2022/09/29 05:07:18;;;;;;;3.87;2.10;;;;;;;18.14;43.49;99934.88;5061370;28;20439;-65
2022/09/29 05:09:43;;;;;;;4.65;2.10;;;;;;;18.14;43.49;99945.44;5061930;28;20265;-65
2022/09/29 05:12:08;;;;;;;4.95;2.30;;;;;;;18.10;43.32;99941.41;5061305;28;20032;-66
2022/09/29 05:14:34;;;;;;;4.38;2.42;;;;;;;18.17;43.34;99952.22;5061702;28;20032;-65
2022/09/29 05:16:59;;;;;;;4.10;2.40;;;;;;;18.15;43.35;99955.03;5061236;28;20090;-64
2022/09/29 05:19:24;;;;;;;4.03;2.55;;;;;;;18.13;43.25;99955.16;5061895;28;20381;-65
2022/09/29 05:21:50;;;;;;;4.10;2.15;;;;;;;18.09;43.00;99940.59;5061283;28;20044;-65
2022/09/29 05:24:15;;;;;;;3.30;1.90;;;;;;;18.15;43.41;99962.94;5061615;28;20032;-66
2022/09/29 05:26:40;;;;;;;3.95;2.30;;;;;;;18.09;43.43;99950.31;5061300;28;20033;-65
2022/09/29 05:29:06;;;;;;;4.35;2.38;;;;;;;18.09;43.34;99961.69;5061581;28;20032;-66
2022/09/29 05:31:31;;;;;;;4.07;2.20;;;;;;;18.06;43.14;99956.72;5061140;28;20400;-64
2022/09/29 05:33:57;;;;;;;4.28;2.30;;;;;;;18.13;42.91;99968.34;5061165;28;20038;-65
2022/09/29 05:36:22;;;;;;;5.05;2.47;;;;;;;18.04;43.21;99953.41;5061083;28;20055;-65
2022/09/29 05:38:48;;;;;;;4.28;2.33;;;;;;;18.11;43.32;99969.47;5061340;28;20044;-63
2022/09/29 05:41:21;;;;;;;5.00;2.50;;;;;;;18.13;43.36;99972.78;5061368;28;20032;-64
2022/09/29 05:43:47;;;;;;;3.63;2.17;;;;;;;18.12;43.30;99971.13;5061443;28;20028;-66
2022/09/29 05:46:12;;;;;;;5.35;2.22;;;;;;;18.12;43.26;99974.59;5060842;28;20115;-67
2022/09/29 05:48:38;;;;;;;3.63;2.10;;;;;;;18.09;43.12;99968.78;5060908;28;20531;-66
2022/09/29 05:51:09;;;;;;;3.60;2.10;;;;;;;18.16;43.32;99977.75;5061301;28;21187;-66
2022/09/29 05:53:35;;;;;;;5.47;2.20;;;;;;;18.18;43.19;99982.88;5061244;28;20402;-67
2022/09/29 05:56:09;;;;;;;3.97;2.10;;;;;;;18.17;43.30;99976.78;5061134;28;20031;-68
2022/09/29 05:58:35;;;;;;;;;;;;;;;18.23;43.13;99986.75;5061721;28;20037;-66
2022/09/29 06:01:14;;;;;;;4.63;2.28;;;;;;;18.22;43.38;99971.91;5060762;28;20639;-65
2022/09/29 06:03:40;;;;;;;4.38;2.17;;;;;;;18.31;43.20;99981.56;5060911;28;20033;-64
2022/09/29 06:06:07;;;;;;;4.47;2.40;;;;;;;18.32;43.36;99979.75;5061354;28;20043;-65
2022/09/29 06:08:33;;;;;;;4.18;2.40;;;;;;;18.45;43.48;99990.81;5061053;28;20131;-65
2022/09/29 06:11:26;;;;;;;3.70;2.08;;;;;;;18.53;43.52;99992.69;5060749;28;20128;-62
2022/09/29 06:13:53;;;;;;;5.25;2.10;;;;;;;18.57;43.34;99990.59;5058970;28;20054;-69
2022/09/29 06:16:21;;;;;;;5.18;1.90;;;;;;;18.61;43.47;99989.31;5060676;28;20037;-64
2022/09/29 06:18:47;;;;;;;4.38;1.98;;;;;;;18.72;43.40;99994.38;5061039;28;20047;-64
2022/09/29 06:21:31;;;;;;;4.10;2.00;;;;;;;18.76;43.50;99998.41;5061057;28;20032;-63
2022/09/29 06:23:57;;;;;;;3.80;1.85;;;;;;;18.88;43.57;100001.66;5064017;28;20044;-67
2022/09/29 06:26:24;;;;;;;5.57;2.15;;;;;;;18.85;43.52;99997.53;5064704;28;20478;-63
2022/09/29 06:28:49;;;;;;;3.53;1.90;;;;;;;18.93;43.62;99996.78;5064374;28;20047;-66
2022/09/29 06:31:17;;;;;;;4.77;1.97;;;;;;;18.99;43.63;100004.13;5064944;28;20036;-62
2022/09/29 06:33:43;;;;;;;4.63;2.55;;;;;;;19.00;43.63;100004.94;5064711;28;20277;-63
2022/09/29 06:38:57;;;;;;;4.15;2.00;;;;;;;19.10;43.71;100018.06;5064280;28;20043;-62
2022/09/29 06:41:22;;;;;;;4.97;2.10;;;;;;;19.13;43.43;100017.75;5064734;28;20041;-65
2022/09/29 06:43:48;;;;;;;4.70;2.17;;;;;;;19.15;43.55;100021.06;5064206;28;20044;-64
2022/09/29 06:46:13;;;;;;;4.30;2.17;;;;;;;19.08;43.72;100014.75;5064450;28;20276;-64
2022/09/29 06:48:38;;;;;;;4.32;2.17;;;;;;;19.13;43.45;100015.94;5064504;28;20052;-64
2022/09/29 06:51:07;;;;;;;4.18;2.15;;;;;;;19.14;43.41;100020.25;5064153;28;20176;-65
2022/09/29 06:53:33;;;;;;;4.55;2.20;;;;;;;19.18;43.42;100023.41;5064219;28;20028;-67
2022/09/29 06:55:59;;;;;;;5.85;2.45;;;;;;;19.22;42.83;100027.44;5064332;28;20044;-67
2022/09/29 06:58:49;;;;;;;6.32;2.30;;;;;;;19.18;43.24;100028.69;5062658;28;20564;-69
2022/09/29 07:01:15;;;;;;;5.07;2.28;;;;;;;19.18;43.73;100036.63;5063831;28;20051;-67
2022/09/29 07:03:40;;;;;;;4.47;2.15;;;;;;;19.23;43.71;100031.72;5061713;28;20059;-68
2022/09/29 07:06:08;;;;;;;4.22;2.42;;;;;;;19.27;43.81;100029.63;5063860;28;20123;-68
2022/09/29 07:08:38;;;;;;;4.97;2.33;;;;;;;19.35;43.63;100041.06;5063033;28;20028;-66
2022/09/29 07:11:04;;;;;;;4.80;2.13;;;;;;;19.30;43.66;100030.13;5063335;28;20031;-66
2022/09/29 07:13:30;;;;;;;5.00;2.22;;;;;;;19.47;43.59;100046.13;5063100;28;20033;-66
2022/09/29 07:15:55;;;;;;;5.22;2.22;;;;;;;19.42;43.38;100035.19;5063476;28;20158;-65
2022/09/29 07:18:21;;;;;;;5.50;2.50;;;;;;;19.47;43.41;100049.59;5062843;28;20036;-69
2022/09/29 07:20:46;;;;;;;6.88;2.20;;;;;;;19.38;43.46;100038.13;5063022;28;20028;-67
2022/09/29 07:23:12;;;;;;;5.22;2.63;;;;;;;19.56;43.30;100053.94;5062852;28;20170;-70
2022/09/29 07:25:37;;;;;;;7.00;1.92;;;;;;;19.61;43.35;100050.84;5062963;28;20452;-71
2022/09/29 07:28:03;;;;;;;4.25;2.20;;;;;;;19.60;43.37;100051.84;5062570;28;20069;-71
2022/09/29 07:30:30;;;;;;;5.70;2.30;;;;;;;19.71;43.00;100064.81;5063020;28;20113;-68
2022/09/29 07:32:56;;;;;;;6.68;2.60;;;;;;;19.68;42.95;100054.56;5062784;28;20029;-68
2022/09/29 07:35:21;;;;;;;6.55;2.58;;;;;;;19.75;42.99;100067.97;5061592;28;20024;-70
2022/09/29 07:37:54;;;;;;;4.53;2.30;;;;;;;19.69;42.69;100052.72;5063123;28;20039;-69
2022/09/29 07:40:20;;;;;;;4.30;2.40;;;;;;;19.71;42.48;100059.53;5062801;28;20032;-69
2022/09/29 07:42:46;;;;;;;5.00;1.90;;;;;;;19.80;42.97;100070.19;5062026;28;20025;-69
2022/09/29 07:45:11;;;;;;;6.55;2.42;;;;;;;19.73;42.83;100068.13;5063008;28;20089;-74
2022/09/29 07:47:36;;;;;;;5.40;2.30;;;;;;;19.73;42.49;100062.03;5062853;28;20047;-69
2022/09/29 07:50:02;;;;;;;4.57;2.10;;;;;;;19.78;42.77;100075.63;5062981;28;20028;-68
2022/09/29 07:52:27;;;;;;;4.20;2.30;;;;;;;19.68;43.09;100070.41;5062336;28;20761;-69
2022/09/29 07:54:53;;;;;;;5.10;1.85;;;;;;;19.67;42.92;100071.38;5062709;28;20514;-69
2022/09/29 07:57:18;;;;;;;5.35;2.20;;;;;;;19.69;42.85;100081.81;5062106;28;20028;-69
2022/09/29 07:59:44;;;;;;;5.47;2.13;;;;;;;19.69;42.90;100082.66;5062391;28;20460;-71
2022/09/29 08:02:09;;;;;;;5.45;2.30;;;;;;;19.68;43.23;100083.63;5062211;28;20028;-69
2022/09/29 08:04:35;;;;;;;6.40;2.20;;;;;;;19.65;42.88;100089.22;5061568;28;20024;-67
2022/09/29 08:07:00;;;;;;;6.47;2.17;;;;;;;19.58;43.26;100083.72;5062998;28;20120;-68
2022/09/29 08:09:25;;;;;;;5.97;2.70;;;;;;;19.64;43.21;100095.47;5062588;28;20035;-68
2022/09/29 08:11:50;;;;;;;4.20;2.40;;;;;;;19.63;43.57;100104.41;5061838;28;20229;-70
2022/09/29 08:14:16;;;;;;;5.43;2.27;;;;;;;19.50;43.35;100094.22;5062062;28;20274;-71
2022/09/29 08:16:41;;;;;;;5.45;1.95;;;;;;;19.62;43.31;100109.84;5062042;28;20737;-69
2022/09/29 08:19:06;;;;;;;7.63;2.33;;;;;;;19.57;43.45;100102.38;5061885;28;20112;-68
2022/09/29 08:21:35;;;;;;;7.10;2.60;;;;;;;19.61;43.18;100100.25;5061780;28;20732;-67
2022/09/29 08:24:01;;;;;;;6.63;2.22;;;;;;;19.70;43.33;100115.19;5062562;28;20492;-66
2022/09/29 08:26:26;;;;;;;6.30;2.75;;;;;;;19.69;43.30;100108.25;5061215;28;20511;-68
2022/09/29 08:28:52;;;;;;;8.18;2.28;;;;;;;19.66;43.17;100111.19;5062001;28;20056;-69
2022/09/29 08:31:20;;;;;;;8.60;2.38;;;;;;;19.76;43.13;100119.91;5062212;28;20127;-69
2022/09/29 08:33:48;;;;;;;4.80;2.13;;;;;;;19.79;43.27;100124.91;5061689;28;20134;-69
2022/09/29 08:36:15;;;;;;;6.13;2.90;;;;;;;19.73;43.60;100123.66;5061882;28;20032;-70
2022/09/29 08:38:49;;;;;;;6.28;2.50;;;;;;;19.79;43.21;100130.19;5061835;28;20493;-72
2022/09/29 08:41:36;;;;;;;5.70;2.20;;;;;;;19.70;43.21;100117.84;5061698;28;20138;-71
2022/09/29 08:44:16;;;;;;;5.70;2.40;;;;;;;19.79;43.33;100140.75;5061492;28;20040;-72
2022/09/29 08:46:47;;;;;;;5.43;2.22;;;;;;;19.72;43.43;100123.81;5061169;28;20077;-73
2022/09/29 08:49:31;;;;;;;4.60;2.50;;;;;;;19.69;43.11;100129.38;5061700;28;20067;-72
2022/09/29 08:52:04;;;;;;;10.05;2.50;;;;;;;19.68;43.33;100130.38;5061971;28;20036;-70
2022/09/29 08:54:33;;;;;;;6.03;2.13;;;;;;;19.62;43.57;100123.88;5060972;28;20406;-71
2022/09/29 08:57:00;;;;;;;7.07;2.40;;;;;;;19.69;43.45;100139.97;5061431;28;20032;-68
2022/09/29 08:59:27;;;;;;;5.40;2.55;;;;;;;19.72;43.38;100132.56;5061211;28;20060;-69
2022/09/29 09:02:14;;;;;;;6.43;2.70;;;;;;;19.72;43.56;100135.19;5061120;28;20039;-73
2022/09/29 09:04:58;;;;;;;6.72;2.67;;;;;;;19.77;43.38;100142.69;5061514;28;20046;-71
2022/09/29 09:07:41;;;;;;;5.60;2.60;;;;;;;19.78;43.68;100147.03;5061144;28;20068;-71
2022/09/29 09:10:24;;;;;;;3.97;2.20;;;;;;;19.82;43.75;100143.09;5061404;28;20115;-71
2022/09/29 09:13:15;;;;;;;5.80;2.33;;;;;;;19.82;43.63;100153.69;5060640;28;20024;-70
2022/09/29 09:16:17;;;;;;;4.10;2.00;;;;;;;19.84;43.76;100156.16;5061149;28;20028;-69
2022/09/29 09:19:10;;;;;;;4.05;2.00;;;;;;;19.84;43.74;100156.16;5061723;28;20032;-71
2022/09/29 09:21:41;;;;;;;4.68;2.15;;;;;;;19.79;43.74;100147.84;5061026;28;20029;-67
2022/09/29 09:24:32;;;;;;;6.30;2.30;;;;;;;19.78;43.74;100154.94;5059838;28;20047;-68
2022/09/29 09:26:58;;;;;;;4.75;2.10;;;;;;;19.68;43.86;100147.06;5062016;28;20054;-69
2022/09/29 09:29:29;;;;;;;5.10;2.20;;;;;;;19.74;43.95;100162.34;5061728;28;20144;-70
2022/09/29 09:32:06;;;;;;;5.05;2.13;;;;;;;19.76;43.99;100156.94;5061457;28;20543;-69
2022/09/29 09:34:54;;;;;;;4.78;2.30;;;;;;;19.77;43.90;100155.09;5060786;28;20129;-74
2022/09/29 09:37:25;;;;;;;6.20;2.20;;;;;;;19.78;44.08;100159.41;5061055;28;20119;-66
2022/09/29 09:40:00;;;;;;;5.70;2.25;;;;;;;19.77;44.19;100160.38;5061291;28;20548;-67
2022/09/29 09:42:29;;;;;;;6.45;2.55;;;;;;;19.73;44.43;100157.19;5060701;28;20032;-68
2022/09/29 09:45:13;;;;;;;5.43;2.35;;;;;;;19.72;44.22;100147.59;5061264;28;20028;-70
2022/09/29 09:48:06;;;;;;;6.97;2.47;;;;;;;19.70;44.28;100149.56;5061372;28;20089;-69
2022/09/29 09:50:32;;;;;;;6.57;2.30;;;;;;;19.71;44.40;100154.69;5060432;28;20035;-72
2022/09/29 09:53:09;;;;;;;4.78;2.50;;;;;;;19.82;44.38;100166.03;5060309;28;20032;-70
2022/09/29 09:55:35;;;;;;;6.40;2.38;;;;;;;19.79;44.33;100161.91;5060704;28;20059;-69
2022/09/29 09:58:19;;;;;;;6.50;2.17;;;;;;;19.83;44.43;100163.25;5058407;28;20912;-70
2022/09/29 10:01:06;;;;;;;6.07;2.30;;;;;;;19.85;44.23;100168.38;5060455;28;20099;-71
2022/09/29 10:03:32;;;;;;;7.07;2.35;;;;;;;19.84;44.24;100162.28;5060354;28;21057;-70
2022/09/29 10:05:58;;;;;;;8.40;2.80;;;;;;;19.85;44.21;100157.81;5060454;28;20119;-67
2022/09/29 10:08:26;;;;;;;4.97;2.30;;;;;;;19.88;44.36;100166.25;5060415;28;20032;-69
2022/09/29 10:10:53;;;;;;;6.57;2.20;;;;;;;19.90;44.27;100166.97;5060014;28;20033;-68
2022/09/29 10:13:19;;;;;;;5.20;2.03;;;;;;;19.93;44.24;100169.31;5060117;28;20554;-68
2022/09/29 10:15:53;;;;;;;6.13;2.20;;;;;;;19.95;44.26;100163.88;5060650;28;20035;-70
2022/09/29 10:18:28;;;;;;;;;;;;;;;19.92;44.22;100172.09;5060583;28;20055;-71
2022/09/29 10:20:53;;;;;;;5.55;2.72;;;;;;;19.93;44.23;100161.38;5060152;28;19935;-69
2022/09/29 10:23:33;;;;;;;5.72;2.35;;;;;;;19.96;44.19;100172.63;5060205;28;20559;-68
2022/09/29 10:26:08;;;;;;;4.30;1.83;;;;;;;19.89;44.19;100164.47;5058559;28;20128;-67
2022/09/29 10:28:51;;;;;;;6.25;2.78;;;;;;;19.96;44.29;100170.78;5060257;28;20047;-67
2022/09/29 10:31:22;;;;;;;4.65;1.83;;;;;;;19.94;44.38;100167.47;5060381;28;20036;-69
2022/09/29 10:33:51;;;;;;;7.47;2.17;;;;;;;20.00;44.25;100179.28;5060230;28;20032;-66
2022/09/29 10:36:19;;;;;;;4.45;1.80;;;;;;;19.96;44.00;100181.38;5059336;28;20043;-65
2022/09/29 10:38:50;;;;;;;6.10;2.13;;;;;;;19.86;44.22;100167.41;5059858;28;20051;-63
2022/09/29 10:41:18;;;;;;;4.15;1.70;;;;;;;19.90;44.29;100179.34;5059191;28;20369;-65
2022/09/29 10:43:44;;;;;;;2.97;1.58;;;;;;;19.89;44.33;100185.63;5060334;28;20464;-65
2022/09/29 10:46:31;;;;;;;3.22;1.63;;;;;;;19.88;44.24;100181.31;5060034;28;20028;-64
2022/09/29 10:49:17;;;;;;;3.35;1.73;;;;;;;19.86;44.43;100181.47;5060499;28;20025;-64
2022/09/29 10:51:53;;;;;;;4.47;1.80;;;;;;;19.79;44.40;100169.00;5060603;28;20036;-63
2022/09/29 10:54:24;;;;;;;4.05;1.95;;;;;;;19.77;44.33;100174.44;5060448;28;20372;-64
2022/09/29 10:56:51;;;;;;;3.42;1.50;;;;;;;19.79;44.42;100185.72;5060764;28;20025;-64
2022/09/29 10:59:16;;;;;;;3.30;1.70;;;;;;;19.80;44.42;100183.88;5058951;28;20122;-65
2022/09/29 11:01:55;;;;;;;3.35;1.58;;;;;;;19.78;44.30;100189.31;5061014;28;20059;-64
2022/09/29 11:04:28;;;;;;;4.47;1.83;;;;;;;19.75;44.44;100184.31;5060959;28;20041;-63
2022/09/29 11:06:54;;;;;;;4.30;1.70;;;;;;;19.75;44.43;100193.06;5060039;28;20407;-63
2022/09/29 11:09:19;;;;;;;3.10;1.30;;;;;;;19.75;44.43;100195.69;5062550;28;20033;-65
2022/09/29 11:11:47;;;;;;;3.73;1.50;;;;;;;19.75;44.58;100194.88;5066874;28;20068;-63
2022/09/29 11:14:30;;;;;;;5.13;1.98;;;;;;;19.69;44.38;100187.53;5065891;28;20046;-63
2022/09/29 11:17:00;;;;;;;4.15;1.77;;;;;;;19.67;44.55;100182.41;5065114;28;20025;-63
2022/09/29 11:19:29;;;;;;;4.35;1.50;;;;;;;19.67;44.55;100178.94;5064177;28;20025;-67
2022/09/29 11:22:13;;;;;;;2.95;1.40;;;;;;;19.75;44.55;100193.06;5063796;28;20034;-68
2022/09/29 11:25:00;;;;;;;4.20;1.67;;;;;;;19.74;44.52;100199.34;5064498;28;20064;-64
2022/09/29 11:27:34;;;;;;;6.88;1.90;;;;;;;19.74;44.93;100204.63;5061294;28;20079;-68
2022/09/29 11:30:00;;;;;;;;;;;;;;;19.71;44.61;100196.16;5063291;28;20033;-66
2022/09/29 11:32:50;;;;;;;4.97;1.90;;;;;;;19.72;45.27;100196.00;5060829;28;21137;-68
2022/09/29 11:35:26;;;;;;;6.40;2.00;;;;;;;19.73;45.28;100186.28;5063299;28;20041;-68
2022/09/29 11:38:12;;;;;;;7.18;1.80;;;;;;;19.73;45.34;100183.63;5063383;28;21226;-67
2022/09/29 11:40:38;;;;;;;5.65;1.85;;;;;;;19.79;45.21;100196.28;5063441;28;20034;-68
2022/09/29 11:43:28;;;;;;;6.57;2.00;;;;;;;19.82;45.09;100193.34;5063555;28;20036;-67
2022/09/29 11:46:13;;;;;;;6.18;2.20;;;;;;;19.82;45.08;100200.41;5062670;28;20650;-69
2022/09/29 11:48:53;;;;;;;3.95;1.65;;;;;;;19.75;44.90;100185.13;5062791;28;20127;-63
2022/09/29 11:51:49;;;;;;;4.85;1.60;;;;;;;19.84;44.71;100195.84;5062526;28;20021;-66